Time;durP1;ratioP1;P1;durP2;ratioP2;P2;SDS_P1;SDS_P2;PMS_P1;PMS_P2;Temp;Humidity;BMP_temperature;BMP_pressure;BME280_temperature;BME280_humidity;BME280_pressure;Samples;Min_cycle;Max_cycle;Signal;HPM_P1;HPM_P2
2021/03/27 00:00:09;;;;;;;;;;;;;;;-0.97;93.38;93958.44;5012238;28;19932;-76
2021/03/27 00:02:37;;;;;;;;;;;;;;;-0.97;93.44;93961.72;5012282;28;19926;-77
2021/03/27 00:05:12;;;;;;;;;;;;;;;-0.97;93.28;93963.47;5012429;28;19922;-77
2021/03/27 00:07:42;;;;;;;;;;;;;;;-1.00;93.14;93962.00;5012121;28;19928;-76
2021/03/27 00:10:13;;;;;;;;;;;;;;;-1.05;92.99;93960.72;5012139;28;19991;-76
2021/03/27 00:12:41;;;;;;;;;;;;;;;-1.10;93.30;93961.09;5011789;28;20508;-76
2021/03/27 00:15:14;;;;;;;;;;;;;;;-1.12;92.93;93950.31;5012148;28;19925;-76
2021/03/27 00:17:44;;;;;;;;;;;;;;;-1.23;93.80;93956.22;5011593;28;19925;-76
2021/03/27 00:20:14;;;;;;;;;;;;;;;-1.33;94.28;93956.13;5011682;28;19921;-76
2021/03/27 00:22:43;;;;;;;;;;;;;;;-1.35;94.37;93958.75;5011834;28;19925;-77
2021/03/27 00:25:15;;;;;;;;;;;;;;;-1.38;94.44;93948.91;5011932;28;19933;-77
2021/03/27 00:27:43;;;;;;;;;;;;;;;-1.37;94.68;93958.09;5011335;28;19921;-76
2021/03/27 00:30:12;;;;;;;;;;;;;;;-1.35;94.42;93952.91;5011759;28;19929;-76
2021/03/27 00:32:40;;;;;;;;;;;;;;;-1.38;94.33;93951.41;5011601;28;19948;-76
2021/03/27 00:35:08;;;;;;;;;;;;;;;-1.46;95.40;93952.94;5011534;28;19921;-76
2021/03/27 00:37:35;;;;;;;;;;;;;;;-1.53;95.38;93953.41;5010539;28;19921;-76
2021/03/27 00:40:06;;;;;;;;;;;;;;;-1.52;95.44;93952.47;5011350;28;20382;-76
2021/03/27 00:42:36;;;;;;;;;;;;;;;-1.55;95.51;93952.72;5011334;28;19925;-76
2021/03/27 00:45:06;;;;;;;;;;;;;;;-1.64;95.92;93954.22;5011294;28;19987;-76
2021/03/27 00:47:34;;;;;;;;;;;;;;;-1.68;95.96;93947.00;5011275;28;20371;-76
2021/03/27 00:50:03;;;;;;;;;;;;;;;-1.70;95.99;93944.63;5010947;28;20015;-76
2021/03/27 00:52:34;;;;;;;;;;;;;;;-1.69;96.45;93947.91;5011376;28;19921;-76
2021/03/27 00:55:02;;;;;;;;;;;;;;;-1.68;96.50;93944.47;5011271;28;20329;-76
2021/03/27 00:57:30;;;;;;;;;;;;;;;-1.62;96.53;93946.56;5011303;28;19922;-76
2021/03/27 01:00:03;;;;;;;;;;;;;;;-1.69;95.67;93938.66;5011287;28;19921;-76
2021/03/27 01:02:30;;;;;;;;;;;;;;;-1.76;95.04;93942.56;5011209;28;19921;-76
2021/03/27 01:04:57;;;;;;;;;;;;;;;-1.80;94.32;93946.22;5010870;28;19921;-76
2021/03/27 01:07:24;;;;;;;;;;;;;;;-1.86;94.73;93947.47;5010936;28;20286;-76
2021/03/27 01:09:52;;;;;;;;;;;;;;;-1.86;94.71;93951.72;5010790;28;19921;-76
2021/03/27 01:12:20;;;;;;;;;;;;;;;-1.88;93.88;93947.63;5011136;28;19983;-76
2021/03/27 01:14:49;;;;;;;;;;;;;;;-1.88;94.31;93946.81;5011126;28;20363;-76
2021/03/27 01:17:18;;;;;;;;;;;;;;;-1.86;95.25;93959.28;5010969;28;19940;-76
2021/03/27 01:19:45;;;;;;;;;;;;;;;-1.86;93.88;93954.25;5010792;28;19925;-76
2021/03/27 01:22:13;;;;;;;;;;;;;;;-1.91;93.80;93952.88;5010827;28;19921;-76
2021/03/27 01:24:39;;;;;;;;;;;;;;;-1.90;93.46;93954.47;5010631;28;20709;-76
2021/03/27 01:27:07;;;;;;;;;;;;;;;-1.90;93.76;93949.44;5010419;28;19925;-76
2021/03/27 01:29:36;;;;;;;;;;;;;;;-1.92;93.74;93948.75;5010472;28;20398;-76
2021/03/27 01:32:08;;;;;;;;;;;;;;;-1.91;94.20;93952.06;5010173;28;19925;-76
2021/03/27 01:34:36;;;;;;;;;;;;;;;-1.88;94.25;93956.88;5010784;28;19921;-76
2021/03/27 01:37:09;;;;;;;;;;;;;;;-1.88;94.90;93954.34;5010420;28;19921;-76
2021/03/27 01:39:49;;;;;;;;;;;;;;;-1.92;95.18;93948.75;5010382;28;20914;-76
2021/03/27 01:42:18;;;;;;;;;;;;;;;-1.93;94.84;93954.72;5010543;28;19964;-76
2021/03/27 01:45:01;;;;;;;;;;;;;;;-1.96;94.53;93942.34;5010511;28;19926;-76
2021/03/27 01:47:32;;;;;;;;;;;;;;;-1.95;94.84;93948.19;5010075;28;19925;-75
2021/03/27 01:50:16;;;;;;;;;;;;;;;-1.94;94.79;93948.03;5010066;28;20004;-76
2021/03/27 01:52:53;;;;;;;;;;;;;;;-1.97;95.55;93953.31;4999957;28;19925;-76
2021/03/27 01:55:26;;;;;;;;;;;;;;;-1.92;95.35;93940.38;5010481;28;19925;-76
2021/03/27 01:57:55;;;;;;;;;;;;;;;-1.92;95.50;93947.94;5010377;28;19928;-76
2021/03/27 02:00:22;;;;;;;;;;;;;;;-1.92;95.39;93953.78;5010104;28;19921;-76
2021/03/27 02:02:54;;;;;;;;;;;;;;;-1.94;95.23;93949.78;5010267;28;20425;-76
2021/03/27 02:05:37;;;;;;;;;;;;;;;-2.04;94.93;93947.94;5010046;28;19972;-77
2021/03/27 02:08:06;;;;;;;;;;;;;;;-2.08;94.11;93948.28;5009806;28;19921;-76
2021/03/27 02:10:39;;;;;;;;;;;;;;;-2.12;94.50;93949.44;5009788;28;19932;-76
2021/03/27 02:13:07;;;;;;;;;;;;;;;-2.15;93.97;93948.75;5009880;28;20367;-76
2021/03/27 02:15:40;;;;;;;;;;;;;;;-2.18;94.79;93948.19;5010089;28;19944;-76
2021/03/27 02:18:14;;;;;;;;;;;;;;;-2.20;94.28;93948.28;5010472;28;19926;-76
2021/03/27 02:20:53;;;;;;;;;;;;;;;-2.24;94.47;93951.13;5009609;28;20377;-76
2021/03/27 02:23:24;;;;;;;;;;;;;;;-2.26;94.97;93956.28;5009740;28;19933;-77
2021/03/27 02:26:09;;;;;;;;;;;;;;;-2.26;95.52;93955.47;5010011;28;19947;-77
2021/03/27 02:28:47;;;;;;;;;;;;;;;-2.24;96.08;93946.91;5009997;28;19925;-76
2021/03/27 02:31:16;;;;;;;;;;;;;;;-2.29;95.04;93959.84;5009979;28;19921;-76
2021/03/27 02:33:47;;;;;;;;;;;;;;;-2.30;94.51;93952.38;5009802;28;19922;-77
2021/03/27 02:36:16;;;;;;;;;;;;;;;-2.33;94.60;93960.97;5009921;28;20271;-77
2021/03/27 02:38:52;;;;;;;;;;;;;;;-2.32;95.46;93954.22;5009727;28;20452;-77
2021/03/27 02:41:29;;;;;;;;;;;;;;;-2.31;95.53;93955.81;5009983;28;19922;-77
2021/03/27 02:43:57;;;;;;;;;;;;;;;-2.29;95.19;93961.53;5010001;28;19929;-76
2021/03/27 02:46:29;;;;;;;;;;;;;;;-2.26;95.63;93968.06;5009738;28;19921;-77
2021/03/27 02:48:58;;;;;;;;;;;;;;;-2.31;95.90;93961.63;5009840;28;19922;-77
2021/03/27 02:51:26;;;;;;;;;;;;;;;-2.36;95.49;93962.91;5009640;28;20359;-77
2021/03/27 02:54:11;;;;;;;;;;;;;;;-2.39;95.67;93965.63;5009752;28;20330;-77
2021/03/27 02:56:44;;;;;;;;;;;;;;;-2.43;95.29;93970.91;5010057;28;20004;-77
2021/03/27 02:59:20;;;;;;;;;;;;;;;-2.48;96.33;93962.88;5009428;28;19921;-77
2021/03/27 03:01:52;;;;;;;;;;;;;;;-2.50;96.53;93969.72;5012374;28;19929;-77
2021/03/27 03:04:26;;;;;;;;;;;;;;;-2.48;96.55;93970.44;5013185;28;20318;-77
2021/03/27 03:06:55;;;;;;;;;;;;;;;-2.51;96.57;93974.88;5013357;28;19921;-77
2021/03/27 03:09:26;;;;;;;;;;;;;;;-2.57;96.95;93974.41;5013115;28;20028;-77
2021/03/27 03:11:58;;;;;;;;;;;;;;;-2.62;97.66;93976.47;5012944;28;19921;-79
2021/03/27 03:14:26;;;;;;;;;;;;;;;-2.60;98.32;93971.31;5013300;28;19931;-81
2021/03/27 03:17:00;;;;;;;;;;;;;;;-2.52;98.20;93970.75;5013232;28;19925;-80
2021/03/27 03:19:29;;;;;;;;;;;;;;;-2.50;97.79;93979.78;5013200;28;19928;-80
2021/03/27 03:21:56;;;;;;;;;;;;;;;-2.48;97.54;93982.19;5013129;28;19922;-79
2021/03/27 03:24:24;;;;;;;;;;;;;;;-2.43;97.35;93985.19;5012934;28;20314;-79
2021/03/27 03:27:02;;;;;;;;;;;;;;;-2.49;97.23;93988.97;5012726;28;20443;-79
2021/03/27 03:29:38;;;;;;;;;;;;;;;-2.55;97.04;93989.38;5013030;28;19921;-79
2021/03/27 03:32:08;;;;;;;;;;;;;;;-2.63;97.04;93984.09;5012804;28;19921;-79
2021/03/27 03:34:44;;;;;;;;;;;;;;;-2.62;97.10;93991.53;5012894;28;19925;-79
2021/03/27 03:37:15;;;;;;;;;;;;;;;-2.65;96.75;93985.94;5012825;28;19921;-79
2021/03/27 03:40:00;;;;;;;;;;;;;;;-2.67;96.45;93986.03;5012312;28;19969;-79
2021/03/27 03:42:51;;;;;;;;;;;;;;;-2.85;97.16;93983.94;5012333;28;20433;-79
2021/03/27 03:45:27;;;;;;;;;;;;;;;-3.14;99.42;93980.94;5012458;28;20433;-79
2021/03/27 03:47:56;;;;;;;;;;;;;;;-3.28;100.00;93976.88;5012697;28;20307;-80
2021/03/27 03:50:28;;;;;;;;;;;;;;;-3.15;100.00;93977.59;5012359;28;19921;-80
2021/03/27 03:53:15;;;;;;;;;;;;;;;-3.07;100.00;93983.84;5012595;28;19948;-80
2021/03/27 03:55:47;;;;;;;;;;;;;;;-3.01;100.00;93990.94;5007078;28;20295;-78
2021/03/27 03:58:29;;;;;;;;;;;;;;;-2.96;99.88;93996.44;5012192;28;19929;-78
2021/03/27 04:00:57;;;;;;;;;;;;;;;-3.00;99.40;93995.84;5012481;28;20425;-78
2021/03/27 04:03:27;;;;;;;;;;;;;;;-2.96;99.02;93989.69;5012172;28;19925;-80
2021/03/27 04:05:56;;;;;;;;;;;;;;;-2.93;98.54;93993.72;5012022;28;19968;-78
2021/03/27 04:08:25;;;;;;;;;;;;;;;-2.90;99.11;93992.69;5012086;28;19928;-77
2021/03/27 04:10:55;;;;;;;;;;;;;;;-2.87;98.26;93995.00;5011710;28;19925;-78
2021/03/27 04:13:24;;;;;;;;;;;;;;;-2.85;98.57;94006.56;5011799;28;19922;-77
2021/03/27 04:15:53;;;;;;;;;;;;;;;-2.80;97.86;94000.38;5012111;28;19921;-79
2021/03/27 04:18:25;;;;;;;;;;;;;;;-2.85;97.63;93993.16;5011744;28;20418;-79
2021/03/27 04:20:55;;;;;;;;;;;;;;;-2.89;98.00;94005.16;5011762;28;19922;-77
2021/03/27 04:23:24;;;;;;;;;;;;;;;-2.90;97.93;94010.28;5011515;28;19931;-77
2021/03/27 04:25:55;;;;;;;;;;;;;;;-2.84;98.54;94017.41;5011926;28;19921;-77
2021/03/27 04:28:29;;;;;;;;;;;;;;;-2.90;98.39;94013.63;5011424;28;19926;-78
2021/03/27 04:30:59;;;;;;;;;;;;;;;-2.88;98.11;94016.03;5011815;28;19932;-77
2021/03/27 04:33:36;;;;;;;;;;;;;;;-2.95;97.40;94018.16;5011837;28;19921;-78
2021/03/27 04:36:06;;;;;;;;;;;;;;;-2.94;97.79;94019.75;5011353;28;20429;-78
2021/03/27 04:38:36;;;;;;;;;;;;;;;-2.90;98.74;94028.69;5011706;28;19922;-78
2021/03/27 04:41:17;;;;;;;;;;;;;;;-2.84;98.46;94032.47;5011389;28;19925;-77
2021/03/27 04:43:47;;;;;;;;;;;;;;;-2.80;98.14;94023.81;5011082;28;20386;-77
2021/03/27 04:46:16;;;;;;;;;;;;;;;-2.76;97.58;94025.22;5011578;28;19926;-77
2021/03/27 04:48:44;;;;;;;;;;;;;;;-2.79;97.56;94029.66;5011027;28;19953;-77
2021/03/27 04:51:31;;;;;;;;;;;;;;;-2.82;97.36;94033.19;5011247;28;19929;-77
2021/03/27 04:54:03;;;;;;;;;;;;;;;-2.96;98.15;94034.94;5006094;28;19932;-79
2021/03/27 04:56:32;;;;;;;;;;;;;;;-2.92;98.93;94028.00;5011439;28;19944;-79
2021/03/27 04:58:59;;;;;;;;;;;;;;;-2.83;99.26;94027.34;5011057;28;19921;-80
2021/03/27 05:01:37;;;;;;;;;;;;;;;-2.75;98.97;94039.41;5011069;28;19928;-78
2021/03/27 05:04:08;;;;;;;;;;;;;;;-2.66;98.87;94042.16;5010753;28;20433;-79
2021/03/27 05:06:36;;;;;;;;;;;;;;;-2.58;98.73;94042.44;5011233;28;19921;-78
2021/03/27 05:09:23;;;;;;;;;;;;;;;-2.49;97.68;94041.78;5015949;28;20438;-80
2021/03/27 05:11:53;;;;;;;;;;;;;;;-2.45;96.92;94037.34;5010752;28;19928;-81
2021/03/27 05:14:43;;;;;;;;;;;;;;;-2.39;97.06;94044.44;5011065;28;19980;-81
2021/03/27 05:17:13;;;;;;;;;;;;;;;-2.39;97.57;94046.97;5011632;28;20012;-80
2021/03/27 05:19:42;;;;;;;;;;;;;;;-2.30;97.84;94048.81;5027529;28;20243;-78
2021/03/27 05:22:16;;;;;;;;;;;;;;;-2.18;97.79;94038.78;5023197;28;19975;-79
2021/03/27 05:25:03;;;;;;;;;;;;;;;-1.97;97.37;94050.72;5025957;28;19925;-78
2021/03/27 05:27:38;;;;;;;;;;;;;;;-1.75;95.39;94044.91;5009067;28;19968;-78
2021/03/27 05:30:12;;;;;;;;;;;;;;;-1.56;94.22;94054.44;5010743;28;19929;-78
2021/03/27 05:32:48;;;;;;;;;;;;;;;-1.61;93.95;94048.94;5010892;28;19921;-79
2021/03/27 05:35:20;;;;;;;;;;;;;;;-1.52;94.59;94049.97;5020161;28;19929;-77
2021/03/27 05:37:51;;;;;;;;;;;;;;;-1.26;94.22;94048.00;5029957;28;19925;-76
2021/03/27 05:40:32;;;;;;;;;;;;;;;-1.07;93.55;94044.06;5010826;28;19921;-76
2021/03/27 05:43:15;;;;;;;;;;;;;;;-0.82;92.80;94045.50;4997920;28;19921;-76
2021/03/27 05:46:00;;;;;;;;;;;;;;;-0.58;92.85;94046.22;5010445;28;19921;-77
2021/03/27 05:48:48;;;;;;;;;;;;;;;-0.35;88.80;94049.47;5010279;28;19929;-77
2021/03/27 05:51:44;;;;;;;;;;;;;;;-0.05;87.20;94049.69;5011150;28;20275;-76
2021/03/27 05:54:15;;;;;;;;;;;;;;;0.17;85.03;94058.03;5029825;28;19921;-76
2021/03/27 05:56:55;;;;;;;;;;;;;;;0.35;84.72;94059.06;5030021;28;19921;-76
2021/03/27 05:59:29;;;;;;;;;;;;;;;0.51;82.84;94063.66;5029657;28;19928;-76
2021/03/27 06:01:58;;;;;;;;;;;;;;;0.34;82.94;94060.00;5029771;28;19921;-76
2021/03/27 06:04:40;;;;;;;;;;;;;;;0.17;84.07;94063.06;5029988;28;19975;-76
2021/03/27 06:07:28;;;;;;;;;;;;;;;0.15;84.11;94067.47;5029984;28;20324;-76
2021/03/27 06:10:09;;;;;;;;;;;;;;;0.19;84.36;94068.81;5029735;28;19967;-76
2021/03/27 06:12:42;;;;;;;;;;;;;;;0.12;85.94;94059.22;5020338;28;19926;-76
2021/03/27 06:15:32;;;;;;;;;;;;;;;0.20;85.47;94067.88;5010107;28;19921;-76
2021/03/27 06:18:17;;;;;;;;;;;;;;;0.34;85.25;94066.75;5004124;28;19925;-76
2021/03/27 06:20:50;;;;;;;;;;;;;;;0.47;85.31;94062.28;5009667;28;19921;-76
2021/03/27 06:23:37;;;;;;;;;;;;;;;0.59;85.32;94068.06;5009859;28;19980;-77
2021/03/27 06:26:21;;;;;;;;;;;;;;;0.86;85.14;94069.25;5016628;28;19921;-77
2021/03/27 06:29:12;;;;;;;;;;;;;;;1.18;84.48;94059.84;5029443;28;20370;-77
2021/03/27 06:31:59;;;;;;;;;;;;;;;1.50;81.90;94060.56;5029545;28;19931;-77
2021/03/27 06:34:43;;;;;;;;;;;;;;;1.62;82.01;94061.25;5030365;28;19971;-76
2021/03/27 06:37:27;;;;;;;;;;;;;;;1.74;80.92;94062.69;5033775;28;19928;-76
2021/03/27 06:40:14;;;;;;;;;;;;;;;1.86;80.41;94060.84;5023318;28;20011;-76
2021/03/27 06:42:52;;;;;;;;;;;;;;;2.04;80.09;94066.00;5033262;28;19925;-76
2021/03/27 06:45:40;;;;;;;;;;;;;;;2.11;78.96;94067.06;5033351;28;19948;-76
2021/03/27 06:48:25;;;;;;;;;;;;;;;2.35;78.36;94068.34;5033404;28;19929;-77
2021/03/27 06:51:02;;;;;;;;;;;;;;;2.62;77.81;94063.44;5033185;28;19928;-77
2021/03/27 06:53:30;;;;;;;;;;;;;;;2.88;75.62;94060.28;5033469;28;19925;-78
2021/03/27 06:56:14;;;;;;;;;;;;;;;3.11;77.12;94055.63;5033144;28;19928;-85
2021/03/27 06:59:04;;;;;;;;;;;;;;;3.46;74.83;94071.03;5033096;28;19931;-80
2021/03/27 07:01:51;;;;;;;;;;;;;;;3.80;74.99;94057.66;5013462;28;19921;-82
2021/03/27 07:04:35;;;;;;;;;;;;;;;4.05;71.08;94054.53;5013191;28;19925;-82
2021/03/27 07:07:07;;;;;;;;;;;;;;;4.09;71.90;94055.81;4982858;28;19980;-80
2021/03/27 07:09:52;;;;;;;;;;;;;;;4.12;72.08;94055.53;5013455;28;19932;-79
2021/03/27 07:12:35;;;;;;;;;;;;;;;4.34;71.92;94059.31;5020361;28;19928;-78
2021/03/27 07:15:19;;;;;;;;;;;;;;;4.80;70.33;94058.28;5002018;28;19921;-80
2021/03/27 07:17:49;;;;;;;;;;;;;;;5.37;68.56;94046.66;5002224;28;19925;-81
2021/03/27 07:20:31;;;;;;;;;;;;;;;5.56;66.38;94058.34;5027775;28;19932;-77
2021/03/27 07:23:23;;;;;;;;;;;;;;;5.64;65.52;94049.13;5030801;28;19925;-77
2021/03/27 07:25:53;;;;;;;;;;;;;;;5.83;64.99;94053.13;4991915;28;19979;-77
2021/03/27 07:28:23;;;;;;;;;;;;;;;5.97;64.45;94047.34;5012981;28;19922;-77
2021/03/27 07:31:08;;;;;;;;;;;;;;;6.41;63.82;94056.44;5031516;28;19931;-77
2021/03/27 07:33:55;;;;;;;;;;;;;;;6.87;65.38;94047.38;5032620;28;20370;-78
2021/03/27 07:36:33;;;;;;;;;;;;;;;7.24;59.21;94052.81;5027420;28;19931;-77
2021/03/27 07:39:23;;;;;;;;;;;;;;;7.47;58.29;94047.72;5032433;28;19932;-77
2021/03/27 07:41:54;;;;;;;;;;;;;;;7.75;56.72;94052.34;4976254;28;20416;-77
2021/03/27 07:44:32;;;;;;;;;;;;;;;7.89;55.37;94050.00;5019677;28;20378;-77
2021/03/27 07:47:19;;;;;;;;;;;;;;;7.96;54.23;94042.44;5011974;28;20291;-79
2021/03/27 07:50:03;;;;;;;;;;;;;;;8.36;52.21;94052.47;5016740;28;19967;-79
2021/03/27 07:52:32;;;;;;;;;;;;;;;8.28;54.66;94049.03;5032382;28;20513;-78
2021/03/27 07:55:21;;;;;;;;;;;;;;;8.42;53.36;94047.44;5032325;28;20305;-78
2021/03/27 07:58:02;;;;;;;;;;;;;;;8.58;52.55;94047.47;5032189;28;20373;-77
2021/03/27 08:00:51;;;;;;;;;;;;;;;8.63;53.07;94046.00;5029828;28;19928;-77
2021/03/27 08:03:28;;;;;;;;;;;;;;;8.59;53.42;94047.31;5016830;28;19921;-77
2021/03/27 08:06:03;;;;;;;;;;;;;;;8.50;53.66;94044.00;5031787;28;19921;-78
2021/03/27 08:08:41;;;;;;;;;;;;;;;8.72;53.34;94041.59;5032124;28;20008;-78
2021/03/27 08:11:16;;;;;;;;;;;;;;;8.75;53.35;94043.78;5031735;28;20374;-77
2021/03/27 08:13:54;;;;;;;;;;;;;;;8.59;53.19;94043.94;5013004;28;19925;-77
2021/03/27 08:16:40;;;;;;;;;;;;;;;8.72;53.98;94049.25;5011778;28;19936;-77
2021/03/27 08:19:21;;;;;;;;;;;;;;;8.67;52.35;94047.22;5011678;28;19921;-77
2021/03/27 08:21:52;;;;;;;;;;;;;;;8.73;53.75;94047.47;5029364;28;19921;-77
2021/03/27 08:24:33;;;;;;;;;;;;;;;8.87;52.97;94045.88;5031846;28;19968;-77
2021/03/27 08:27:15;;;;;;;;;;;;;;;8.93;52.71;94045.97;5029043;28;20449;-77
2021/03/27 08:29:58;;;;;;;;;;;;;;;8.91;52.23;94050.50;5031172;28;19925;-77
2021/03/27 08:32:42;;;;;;;;;;;;;;;8.86;52.57;94045.09;5030319;28;19951;-77
2021/03/27 08:35:31;;;;;;;;;;;;;;;8.88;52.32;94044.94;5001189;28;20350;-77
2021/03/27 08:38:12;;;;;;;;;;;;;;;9.04;52.58;94057.56;5031949;28;20345;-77
2021/03/27 08:40:48;;;;;;;;;;;;;;;9.13;52.15;94048.00;5031566;28;19928;-77
2021/03/27 08:43:32;;;;;;;;;;;;;;;9.35;51.99;94048.81;5031770;28;19931;-77
2021/03/27 08:46:23;;;;;;;;;;;;;;;9.46;51.81;94050.13;5031159;28;19967;-78
2021/03/27 08:49:07;;;;;;;;;;;;;;;9.59;50.87;94052.00;5030986;28;19920;-77
2021/03/27 08:51:41;;;;;;;;;;;;;;;9.70;51.16;94053.31;5000449;28;19928;-78
2021/03/27 08:54:26;;;;;;;;;;;;;;;9.76;49.67;94044.88;5031149;28;19932;-77
2021/03/27 08:57:15;;;;;;;;;;;;;;;9.96;51.46;94043.47;5030885;28;20382;-77
2021/03/27 09:00:02;;;;;;;;;;;;;;;10.13;50.47;94041.41;5029909;28;19928;-78
2021/03/27 09:03:01;;;;;;;;;;;;;;;10.26;50.13;94036.41;5025941;28;20349;-78
2021/03/27 09:05:33;;;;;;;;;;;;;;;10.40;48.87;94041.63;4969452;28;19922;-77
2021/03/27 09:08:09;;;;;;;;;;;;;;;10.48;49.16;94044.09;4969329;28;19930;-77
2021/03/27 09:10:42;;;;;;;;;;;;;;;10.64;49.28;94042.97;5002395;28;19921;-77
2021/03/27 09:13:26;;;;;;;;;;;;;;;10.76;48.38;94048.41;5030963;28;19924;-77
2021/03/27 09:16:25;;;;;;;;;;;;;;;10.76;47.80;94047.59;5031014;28;19925;-77
2021/03/27 09:19:04;;;;;;;;;;;;;;;10.94;49.46;94045.31;5030599;28;20259;-77
2021/03/27 09:21:36;;;;;;;;;;;;;;;10.70;48.62;94038.88;5030279;28;19921;-77
2021/03/27 09:24:12;;;;;;;;;;;;;;;10.87;48.77;94036.78;5030409;28;19921;-77
2021/03/27 09:26:53;;;;;;;;;;;;;;;10.72;48.81;94044.59;5018851;28;19921;-77
2021/03/27 09:29:30;;;;;;;;;;;;;;;10.67;49.87;94045.19;5010539;28;19971;-77
2021/03/27 09:32:03;;;;;;;;;;;;;;;10.44;47.71;94042.88;5010642;28;19948;-76
2021/03/27 09:34:40;;;;;;;;;;;;;;;10.66;49.48;94045.38;5010037;28;19937;-77
2021/03/27 09:37:12;;;;;;;;;;;;;;;10.90;46.47;94044.13;5015568;28;19928;-77
2021/03/27 09:39:44;;;;;;;;;;;;;;;10.95;48.29;94039.19;5015831;28;19925;-76
2021/03/27 09:42:25;;;;;;;;;;;;;;;11.17;49.51;94039.09;5028206;28;19927;-76
2021/03/27 09:45:10;;;;;;;;;;;;;;;11.42;48.39;94048.03;5025153;28;20358;-76
2021/03/27 09:47:49;;;;;;;;;;;;;;;11.80;48.02;94044.19;5010491;28;19921;-77
2021/03/27 09:50:18;;;;;;;;;;;;;;;11.69;47.73;94043.75;5019498;28;20298;-78
2021/03/27 09:53:00;;;;;;;;;;;;;;;11.74;48.59;94031.09;5030197;28;20008;-77
2021/03/27 09:55:46;;;;;;;;;;;;;;;11.54;48.76;94032.84;5010326;28;19922;-77
2021/03/27 09:58:18;;;;;;;;;;;;;;;11.55;46.73;94031.84;5010301;28;19965;-77
2021/03/27 10:01:04;;;;;;;;;;;;;;;11.58;47.87;94039.97;5010009;28;20346;-77
2021/03/27 10:03:34;;;;;;;;;;;;;;;11.62;48.82;94023.16;5009976;28;20382;-77
2021/03/27 10:06:10;;;;;;;;;;;;;;;11.42;48.38;94030.03;5009758;28;19979;-76
2021/03/27 10:08:40;;;;;;;;;;;;;;;11.22;48.56;94029.00;5010140;28;19922;-77
2021/03/27 10:11:09;;;;;;;;;;;;;;;11.30;46.98;94028.03;5019481;28;19925;-77
2021/03/27 10:13:51;;;;;;;;;;;;;;;11.32;48.13;94023.50;5011914;28;20408;-77
2021/03/27 10:16:19;;;;;;;;;;;;;;;11.59;47.38;94033.06;5010122;28;19932;-77
2021/03/27 10:18:50;;;;;;;;;;;;;;;11.59;48.87;94026.13;5010025;28;20350;-77
2021/03/27 10:21:27;;;;;;;;;;;;;;;11.57;47.45;94027.31;5010117;28;19926;-77
2021/03/27 10:23:54;;;;;;;;;;;;;;;11.86;47.85;94031.28;5009745;28;19929;-77
2021/03/27 10:26:29;;;;;;;;;;;;;;;12.01;46.21;94007.97;5009726;28;19929;-77
2021/03/27 10:28:58;;;;;;;;;;;;;;;12.35;47.48;94025.97;5010367;28;20362;-77
2021/03/27 10:31:27;;;;;;;;;;;;;;;12.16;46.06;94017.28;5009369;28;19928;-77
2021/03/27 10:34:02;;;;;;;;;;;;;;;12.21;47.01;94019.28;5009883;28;19925;-77
2021/03/27 10:36:42;;;;;;;;;;;;;;;12.38;47.65;94020.44;5009943;28;20422;-77
2021/03/27 10:39:32;;;;;;;;;;;;;;;12.39;46.66;94019.44;5009845;28;19921;-77
2021/03/27 10:42:11;;;;;;;;;;;;;;;12.30;47.02;94020.63;5009855;28;20281;-77
2021/03/27 10:44:42;;;;;;;;;;;;;;;12.42;47.25;94018.25;5014507;28;19932;-77
2021/03/27 10:47:13;;;;;;;;;;;;;;;12.47;47.07;94012.47;5029208;28;19925;-77
2021/03/27 10:49:43;;;;;;;;;;;;;;;12.53;47.06;94015.06;5029112;28;20503;-76
2021/03/27 10:52:24;;;;;;;;;;;;;;;12.46;46.11;94013.47;5029376;28;19928;-76
2021/03/27 10:54:57;;;;;;;;;;;;;;;12.42;45.31;94018.25;5029103;28;19921;-77
2021/03/27 10:57:41;;;;;;;;;;;;;;;12.48;44.68;94011.50;5029276;28;19948;-78
2021/03/27 11:00:17;;;;;;;;;;;;;;;12.52;46.63;94007.53;5029128;28;19921;-77
2021/03/27 11:02:52;;;;;;;;;;;;;;;12.46;45.87;94005.75;5029298;28;19925;-77
2021/03/27 11:05:28;;;;;;;;;;;;;;;12.53;46.43;94012.47;5029609;28;19925;-77
2021/03/27 11:08:06;;;;;;;;;;;;;;;12.38;46.36;94007.56;5029090;28;19925;-78
2021/03/27 11:10:46;;;;;;;;;;;;;;;12.44;46.17;94011.09;5029025;28;19928;-78
2021/03/27 11:13:29;;;;;;;;;;;;;;;12.59;45.72;94004.94;5014672;28;20291;-77
2021/03/27 11:16:13;;;;;;;;;;;;;;;12.64;46.12;94005.91;5009663;28;19932;-77
2021/03/27 11:19:00;;;;;;;;;;;;;;;12.80;44.02;94006.47;5009203;28;19925;-77
2021/03/27 11:21:38;;;;;;;;;;;;;;;13.07;44.80;93996.84;5010302;28;19984;-78
2021/03/27 11:24:22;;;;;;;;;;;;;;;13.34;43.53;94004.44;5013013;28;19921;-78
2021/03/27 11:26:57;;;;;;;;;;;;;;;13.39;44.66;93996.09;5012975;28;19929;-78
2021/03/27 11:29:33;;;;;;;;;;;;;;;13.33;43.15;93996.94;5012395;28;19928;-78
2021/03/27 11:32:15;;;;;;;;;;;;;;;13.16;44.59;93999.19;5012989;28;19929;-78
2021/03/27 11:34:45;;;;;;;;;;;;;;;13.06;44.87;93994.47;5012509;28;19921;-77
2021/03/27 11:37:33;;;;;;;;;;;;;;;13.17;44.43;93991.25;5012468;28;20051;-77
2021/03/27 11:40:04;;;;;;;;;;;;;;;13.20;44.59;93987.47;5013039;28;19921;-77
2021/03/27 11:42:34;;;;;;;;;;;;;;;13.25;43.67;93982.47;5012756;28;19921;-77
2021/03/27 11:45:08;;;;;;;;;;;;;;;13.42;44.78;93969.09;5012397;28;19925;-78
2021/03/27 11:47:37;;;;;;;;;;;;;;;13.56;43.74;93974.97;5012271;28;19925;-77
2021/03/27 11:50:11;;;;;;;;;;;;;;;13.70;44.75;93973.88;5012497;28;19921;-77
2021/03/27 11:52:38;;;;;;;;;;;;;;;13.68;44.71;93969.91;5031668;28;19925;-76
2021/03/27 11:55:12;;;;;;;;;;;;;;;13.49;44.52;93970.66;5032547;28;19925;-76
2021/03/27 11:57:46;;;;;;;;;;;;;;;13.26;43.32;93966.00;5032333;28;19921;-76
2021/03/27 12:03:15;;;;;;;;;;;;;;;13.41;44.68;93967.47;5031777;28;20059;-77
2021/03/27 12:05:47;;;;;;;;;;;;;;;13.27;45.00;93959.03;5032008;28;19971;-77
2021/03/27 12:08:18;;;;;;;;;;;;;;;13.28;44.81;93971.72;5031756;28;19978;-78
2021/03/27 12:10:52;;;;;;;;;;;;;;;13.58;43.42;93960.88;5031662;28;19927;-78
2021/03/27 12:13:24;;;;;;;;;;;;;;;13.70;43.51;93958.38;5016467;28;19928;-78
2021/03/27 12:15:54;;;;;;;;;;;;;;;13.72;44.77;93955.59;5011931;28;19925;-79
2021/03/27 12:18:35;;;;;;;;;;;;;;;13.63;44.15;93952.47;5011693;28;19932;-78
2021/03/27 12:21:05;;;;;;;;;;;;;;;13.66;44.51;93952.06;5011985;28;19921;-78
2021/03/27 12:23:35;;;;;;;;;;;;;;;13.83;44.59;93948.94;5012093;28;19925;-78
2021/03/27 12:26:11;;;;;;;;;;;;;;;14.03;42.83;93941.81;5011836;28;19925;-79
2021/03/27 12:28:40;;;;;;;;;;;;;;;14.15;43.73;93939.34;5011583;28;19922;-78
2021/03/27 12:31:11;;;;;;;;;;;;;;;14.02;44.56;93942.03;5011753;28;19922;-78
2021/03/27 12:33:45;;;;;;;;;;;;;;;13.82;44.14;93940.41;5011744;28;19921;-77
2021/03/27 12:36:15;;;;;;;;;;;;;;;13.78;40.38;93941.84;5011692;28;19929;-77
2021/03/27 12:38:55;;;;;;;;;;;;;;;13.82;42.28;93945.59;5011288;28;19925;-78
2021/03/27 12:41:24;;;;;;;;;;;;;;;13.84;44.22;93945.38;5011542;28;19926;-78
2021/03/27 12:43:52;;;;;;;;;;;;;;;13.92;40.66;93944.31;5011441;28;19921;-78
2021/03/27 12:46:42;;;;;;;;;;;;;;;14.02;42.71;93949.78;5011576;28;19921;-78
2021/03/27 12:49:18;;;;;;;;;;;;;;;14.04;43.44;93942.63;5011576;28;20322;-78
2021/03/27 12:51:48;;;;;;;;;;;;;;;14.12;43.40;93946.72;5029106;28;19925;-78
2021/03/27 12:54:30;;;;;;;;;;;;;;;14.15;41.85;93936.75;5031232;28;19921;-78
2021/03/27 12:57:06;;;;;;;;;;;;;;;14.24;42.65;93939.84;5030723;28;19921;-79
2021/03/27 12:59:37;;;;;;;;;;;;;;;14.31;41.78;93932.03;5030648;28;19925;-78
2021/03/27 13:02:14;;;;;;;;;;;;;;;14.45;41.48;93927.53;5030892;28;19921;-78
2021/03/27 13:04:59;;;;;;;;;;;;;;;14.59;41.39;93930.75;5011185;28;20294;-78
2021/03/27 13:07:29;;;;;;;;;;;;;;;14.67;40.70;93930.44;5011047;28;19921;-79
2021/03/27 13:09:58;;;;;;;;;;;;;;;14.55;42.47;93927.00;5011212;28;20616;-78
2021/03/27 13:12:30;;;;;;;;;;;;;;;14.62;41.75;93919.19;5018787;28;20381;-78
2021/03/27 13:15:11;;;;;;;;;;;;;;;14.60;41.82;93921.19;5031017;28;19921;-79
2021/03/27 13:17:46;;;;;;;;;;;;;;;14.69;40.54;93920.66;5030480;28;19921;-79
2021/03/27 13:20:17;;;;;;;;;;;;;;;14.79;42.55;93915.03;5030593;28;19921;-79
2021/03/27 13:22:47;;;;;;;;;;;;;;;14.79;40.63;93915.03;5019087;28;19922;-78
2021/03/27 13:25:19;;;;;;;;;;;;;;;14.87;40.90;93907.97;5008568;28;20393;-79
2021/03/27 13:27:49;;;;;;;;;;;;;;;14.85;41.25;93909.97;5010318;28;19928;-78
2021/03/27 13:30:21;;;;;;;;;;;;;;;14.79;39.90;93906.47;5022607;28;19925;-78
2021/03/27 13:32:52;;;;;;;;;;;;;;;14.82;41.54;93908.63;5029792;28;19967;-78